Time;durP1;ratioP1;P1;durP2;ratioP2;P2;SDS_P1;SDS_P2;PMS_P1;PMS_P2;Temp;Humidity;BMP_temperature;BMP_pressure;BME280_temperature;BME280_humidity;BME280_pressure;Samples;Min_cycle;Max_cycle;Signal;HPM_P1;HPM_P2
2020/06/06 14:26:05;;;;;;;1.9;1.6;;;;;;;23.29;48.67969;94163.01;;;;
2020/06/06 14:27:06;;;;;;;1.9;1.6;;;;;;;23.29;48.67969;94163.01;;;;
2020/06/06 14:28:06;;;;;;;1.9;1.6;;;;;;;23.29;48.67969;94163.01;;;;
2020/06/06 14:36:26;;;;;;;2.4;2.2;;;;;;;22.15;50.60352;94170.2;;;;
2020/06/06 14:37:28;;;;;;;2.4;2.2;;;;;;;22.15;50.60352;94170.2;;;;
2020/06/06 14:38:35;;;;;;;2.4;2.2;;;;;;;22.15;50.60352;94170.2;;;;
2020/06/06 14:39:44;;;;;;;2.4;2.2;;;;;;;22.15;50.60352;94170.2;;;;
2020/06/06 14:40:50;;;;;;;2.4;2.2;;;;;;;22.15;50.60352;94170.2;;;;
2020/06/06 14:42:00;;;;;;;2.4;2.2;;;;;;;22.15;50.60352;94170.2;;;;
2020/06/06 14:48:24;;;;;;;2.4;2.2;;;;;;;22.15;50.60352;94170.2;;;;
2020/06/06 14:49:47;;;;;;;2.4;2.2;;;;;;;22.15;50.60352;94170.2;;;;
2020/06/06 14:50:52;;;;;;;2.4;2.2;;;;;;;22.15;50.60352;94170.2;;;;
2020/06/06 14:52:52;;;;;;;2.4;2.2;;;;;;;22.15;50.60352;94170.2;;;;
2020/06/06 14:55:17;;;;;;;2.4;2.2;;;;;;;22.15;50.60352;94170.2;;;;
2020/06/06 15:01:41;;;;;;;2.7;2.5;;;;;;;21.22;53.66504;94177.42;;;;
2020/06/06 15:02:53;;;;;;;2.7;2.5;;;;;;;21.22;53.66504;94177.42;;;;
2020/06/06 15:04:00;;;;;;;2.7;2.5;;;;;;;21.22;53.66504;94177.42;;;;
2020/06/06 15:05:03;;;;;;;2.7;2.5;;;;;;;21.22;53.66504;94177.42;;;;
2020/06/06 15:06:10;;;;;;;2.7;2.5;;;;;;;21.22;53.66504;94177.42;;;;
2020/06/06 15:07:22;;;;;;;2.7;2.5;;;;;;;21.22;53.66504;94177.42;;;;
2020/06/06 15:13:35;;;;;;;3.1;2.8;;;;;;;21.12;55.05371;94154.83;;;;
2020/06/06 15:14:47;;;;;;;3.1;2.8;;;;;;;21.12;55.05371;94154.83;;;;
2020/06/06 15:15:58;;;;;;;3.1;2.8;;;;;;;21.12;55.05371;94154.83;;;;
2020/06/06 15:17:01;;;;;;;3.1;2.8;;;;;;;21.12;55.05371;94154.83;;;;
2020/06/06 15:26:57;;;;;;;2.850001;2.45;;;;;;;20.84;56.0332;94171.45;;;;
2020/06/06 15:28:20;;;;;;;2.850001;2.45;;;;;;;20.84;56.0332;94171.45;;;;
2020/06/06 15:30:31;;;;;;;2.850001;2.45;;;;;;;20.84;56.0332;94171.45;;;;
2020/06/06 15:31:41;;;;;;;2.45;2.25;;;;;;;20.32;57.47461;94166.2;;;;
2020/06/06 15:32:47;;;;;;;2.45;2.25;;;;;;;20.32;57.47461;94166.2;;;;
2020/06/06 15:33:51;;;;;;;2.45;2.25;;;;;;;20.32;57.47461;94166.2;;;;
2020/06/06 15:34:55;;;;;;;2.45;2.25;;;;;;;20.32;57.47461;94166.2;;;;
2020/06/06 15:35:56;;;;;;;2.45;2.25;;;;;;;20.32;57.47461;94166.2;;;;
2020/06/06 15:37:02;;;;;;;2.45;2.25;;;;;;;20.32;57.47461;94166.2;;;;
2020/06/06 15:38:08;;;;;;;2.45;2.25;;;;;;;20.32;57.47461;94166.2;;;;
2020/06/06 15:39:09;;;;;;;2.45;2.25;;;;;;;20.32;57.47461;94166.2;;;;
2020/06/06 15:40:10;;;;;;;2.1;1.9;;;;;;;19.76;58.38965;94163;;;;
2020/06/06 15:41:11;;;;;;;2.1;1.9;;;;;;;19.76;58.38965;94163;;;;
2020/06/06 15:47:07;;;;;;;2.1;1.9;;;;;;;19.76;58.38965;94163;;;;
2020/06/06 15:48:17;;;;;;;2.1;1.9;;;;;;;19.76;58.38965;94163;;;;
2020/06/06 15:50:01;;;;;;;2.1;1.9;;;;;;;19.76;58.38965;94163;;;;
2020/06/06 15:56:15;;;;;;;1.9;1.8;;;;;;;19.44;59.3252;94167.94;;;;
2020/06/06 15:57:20;;;;;;;1.9;1.8;;;;;;;19.44;59.3252;94167.94;;;;
2020/06/06 16:03:39;;;;;;;1.8;1.7;;;;;;;19.03;60.00391;94162.37;;;;
2020/06/06 16:05:38;;;;;;;1.8;1.7;;;;;;;19.03;60.00391;94162.37;;;;
2020/06/06 16:06:53;;;;;;;1.8;1.7;;;;;;;19.03;60.00391;94162.37;;;;
2020/06/06 16:12:59;;;;;;;1.85;1.75;;;;;;;18.55;61.19922;94219.67;;;;
2020/06/06 16:14:07;;;;;;;1.85;1.75;;;;;;;18.55;61.19922;94219.67;;;;
2020/06/06 16:15:16;;;;;;;1.85;1.75;;;;;;;18.55;61.19922;94219.67;;;;
2020/06/06 16:16:24;;;;;;;1.85;1.75;;;;;;;18.55;61.19922;94219.67;;;;
2020/06/06 16:23:19;;;;;;;1.85;1.75;;;;;;;18.55;61.19922;94219.67;;;;
2020/06/06 16:29:31;;;;;;;2.9;2.6;;;;;;;17.99;62.49805;94217.56;;;;
2020/06/06 16:30:40;;;;;;;2.9;2.6;;;;;;;17.99;62.49805;94217.56;;;;
2020/06/06 16:31:49;;;;;;;2.9;2.6;;;;;;;17.99;62.49805;94217.56;;;;
2020/06/06 16:33:29;;;;;;;2.9;2.6;;;;;;;17.99;62.49805;94217.56;;;;
2020/06/06 16:40:43;;;;;;;4.15;3.5;;;;;;;17.13;65.24316;94241.31;;;;
2020/06/06 16:41:49;;;;;;;4.15;3.5;;;;;;;17.13;65.24316;94241.31;;;;
2020/06/06 16:43:47;;;;;;;4.15;3.5;;;;;;;17.13;65.24316;94241.31;;;;
2020/06/06 16:50:07;;;;;;;8.15;4.7;;;;;;;16.37;67.44434;94267.3;;;;
2020/06/06 16:51:15;;;;;;;8.15;4.7;;;;;;;16.37;67.44434;94267.3;;;;
2020/06/06 16:52:35;;;;;;;8.15;4.7;;;;;;;16.37;67.44434;94267.3;;;;
2020/06/06 16:53:40;;;;;;;8.15;4.7;;;;;;;16.37;67.44434;94267.3;;;;
2020/06/06 16:54:48;;;;;;;6.2;5.6;;;;;;;15.86;69.32129;94245.86;;;;
2020/06/06 16:56:18;;;;;;;6.2;5.6;;;;;;;15.86;69.32129;94245.86;;;;
2020/06/06 16:57:32;;;;;;;6.2;5.6;;;;;;;15.86;69.32129;94245.86;;;;
2020/06/06 16:58:35;;;;;;;6.2;5.6;;;;;;;15.86;69.32129;94245.86;;;;
2020/06/06 17:01:25;;;;;;;6.2;5.6;;;;;;;15.86;69.32129;94245.86;;;;
2020/06/06 17:02:32;;;;;;;6.2;5.6;;;;;;;15.86;69.32129;94245.86;;;;
2020/06/06 17:03:41;;;;;;;6.2;5.6;;;;;;;15.86;69.32129;94245.86;;;;
2020/06/06 17:04:48;;;;;;;6.2;5.6;;;;;;;15.86;69.32129;94245.86;;;;
2020/06/06 17:05:54;;;;;;;7.7;6.749999;;;;;;;15.5;71.32227;94244.71;;;;
2020/06/06 17:06:59;;;;;;;7.7;6.749999;;;;;;;15.5;71.32227;94244.71;;;;
2020/06/06 17:13:25;;;;;;;7.7;6.749999;;;;;;;15.5;71.32227;94244.71;;;;
2020/06/06 17:15:03;;;;;;;7.7;6.749999;;;;;;;15.5;71.32227;94244.71;;;;
2020/06/06 17:16:40;;;;;;;6.35;5.699999;;;;;;;15.37;72.89355;94253.53;;;;
2020/06/06 17:18:19;;;;;;;6.35;5.699999;;;;;;;15.37;72.89355;94253.53;;;;
2020/06/06 17:19:57;;;;;;;6.35;5.699999;;;;;;;15.37;72.89355;94253.53;;;;
2020/06/06 17:21:08;;;;;;;6.35;5.699999;;;;;;;15.37;72.89355;94253.53;;;;
2020/06/06 17:22:11;;;;;;;6.35;5.699999;;;;;;;15.37;72.89355;94253.53;;;;
2020/06/06 17:33:36;;;;;;;7.5;6.7;;;;;;;15.26;74.22754;94237.08;;;;
2020/06/06 17:35:48;;;;;;;7.5;6.7;;;;;;;15.26;74.22754;94237.08;;;;
2020/06/06 17:36:58;;;;;;;8.35;7.550001;;;;;;;15.38;75.55664;94243.88;;;;
2020/06/06 17:41:20;;;;;;;8.35;7.550001;;;;;;;15.38;75.55664;94243.88;;;;
2020/06/06 17:42:27;;;;;;;8.35;7.550001;;;;;;;15.38;75.55664;94243.88;;;;
2020/06/06 17:43:31;;;;;;;8.35;7.550001;;;;;;;15.38;75.55664;94243.88;;;;
2020/06/06 17:44:53;;;;;;;8.35;7.550001;;;;;;;15.38;75.55664;94243.88;;;;
2020/06/06 17:51:26;;;;;;;7.050001;6.45;;;;;;;15.44;76.5957;94266.67;;;;
2020/06/06 17:52:31;;;;;;;7.050001;6.45;;;;;;;15.44;76.5957;94266.67;;;;
2020/06/06 17:53:42;;;;;;;7.050001;6.45;;;;;;;15.44;76.5957;94266.67;;;;
2020/06/06 17:55:20;;;;;;;7.050001;6.45;;;;;;;15.44;76.5957;94266.67;;;;
2020/06/06 18:03:43;;;;;;;8.4;7.6;;;;;;;15.54;77.62891;94275.27;;;;
2020/06/06 18:15:15;;;;;;;6.75;6.05;;;;;;;15.42;78.87109;94267.1;;;;
2020/06/06 18:16:24;;;;;;;6.75;6.05;;;;;;;15.42;78.87109;94267.1;;;;
2020/06/06 18:17:24;;;;;;;6.75;6.05;;;;;;;15.42;78.87109;94267.1;;;;
2020/06/06 18:23:42;;;;;;;7.25;6.550001;;;;;;;15.35;79.83203;94264.71;;;;
2020/06/06 18:24:44;;;;;;;7.25;6.550001;;;;;;;15.35;79.83203;94264.71;;;;
2020/06/06 18:25:45;;;;;;;7.25;6.550001;;;;;;;15.35;79.83203;94264.71;;;;
2020/06/06 18:26:46;;;;;;;7.25;6.550001;;;;;;;15.35;79.83203;94264.71;;;;
2020/06/06 18:27:47;;;;;;;7.25;6.550001;;;;;;;15.35;79.83203;94264.71;;;;
2020/06/06 18:29:03;;;;;;;7.25;6.550001;;;;;;;15.35;79.83203;94264.71;;;;
2020/06/06 18:30:04;;;;;;;6.45;5.699998;;;;;;;15.44;80.77637;94253.61;;;;
2020/06/06 18:31:25;;;;;;;6.45;5.699998;;;;;;;15.44;80.77637;94253.61;;;;
2020/06/06 18:32:29;;;;;;;6.45;5.699998;;;;;;;15.44;80.77637;94253.61;;;;
2020/06/06 18:33:29;;;;;;;6.45;5.699998;;;;;;;15.44;80.77637;94253.61;;;;
2020/06/06 18:34:35;;;;;;;6.45;5.699998;;;;;;;15.44;80.77637;94253.61;;;;
2020/06/06 18:35:35;;;;;;;6.45;5.699998;;;;;;;15.44;80.77637;94253.61;;;;
2020/06/06 18:36:36;;;;;;;6.45;5.699998;;;;;;;15.44;80.77637;94253.61;;;;
2020/06/06 18:38:42;;;;;;;6.45;5.699998;;;;;;;15.44;80.77637;94253.61;;;;
2020/06/06 18:40:03;;;;;;;6.45;5.699998;;;;;;;15.44;80.77637;94253.61;;;;
2020/06/06 18:42:13;;;;;;;8.200001;7.35;;;;;;;15.48;81.41113;94251.81;;;;
2020/06/06 18:43:16;;;;;;;8.200001;7.35;;;;;;;15.48;81.41113;94251.81;;;;
2020/06/06 18:44:16;;;;;;;8.200001;7.35;;;;;;;15.48;81.41113;94251.81;;;;
2020/06/06 18:45:18;;;;;;;8.200001;7.35;;;;;;;15.48;81.41113;94251.81;;;;
2020/06/06 18:46:21;;;;;;;8.200001;7.35;;;;;;;15.48;81.41113;94251.81;;;;
2020/06/06 18:47:22;;;;;;;8.200001;7.35;;;;;;;15.48;81.41113;94251.81;;;;
2020/06/06 18:48:24;;;;;;;8.200001;7.35;;;;;;;15.48;81.41113;94251.81;;;;
2020/06/06 18:49:31;;;;;;;8.200001;7.35;;;;;;;15.48;81.41113;94251.81;;;;
2020/06/06 18:50:32;;;;;;;8.200001;7.35;;;;;;;15.48;81.41113;94251.81;;;;
2020/06/06 18:51:39;;;;;;;8.1;7.3;;;;;;;15.39;82.34375;94269.43;;;;
2020/06/06 18:52:41;;;;;;;8.1;7.3;;;;;;;15.39;82.34375;94269.43;;;;
2020/06/06 18:53:45;;;;;;;8.1;7.3;;;;;;;15.39;82.34375;94269.43;;;;
2020/06/06 18:54:49;;;;;;;8.1;7.3;;;;;;;15.39;82.34375;94269.43;;;;
2020/06/06 18:55:49;;;;;;;8.1;7.3;;;;;;;15.39;82.34375;94269.43;;;;
2020/06/06 18:56:58;;;;;;;8.1;7.3;;;;;;;15.39;82.34375;94269.43;;;;
2020/06/06 18:58:04;;;;;;;8.1;7.3;;;;;;;15.39;82.34375;94269.43;;;;
2020/06/06 18:59:07;;;;;;;8.1;7.3;;;;;;;15.39;82.34375;94269.43;;;;
2020/06/06 19:01:14;;;;;;;8.1;7.3;;;;;;;15.39;82.34375;94269.43;;;;
2020/06/06 19:02:19;;;;;;;9.35;8.450002;;;;;;;15.31;83.32227;94258.76;;;;
2020/06/06 19:03:22;;;;;;;9.35;8.450002;;;;;;;15.31;83.32227;94258.76;;;;
2020/06/06 19:04:24;;;;;;;9.35;8.450002;;;;;;;15.31;83.32227;94258.76;;;;
2020/06/06 19:05:25;;;;;;;9.35;8.450002;;;;;;;15.31;83.32227;94258.76;;;;
2020/06/06 19:06:26;;;;;;;9.35;8.450002;;;;;;;15.31;83.32227;94258.76;;;;
2020/06/06 19:07:42;;;;;;;9.35;8.450002;;;;;;;15.31;83.32227;94258.76;;;;
2020/06/06 19:08:47;;;;;;;9.35;8.450002;;;;;;;15.31;83.32227;94258.76;;;;
2020/06/06 19:09:49;;;;;;;9.35;8.450002;;;;;;;15.31;83.32227;94258.76;;;;
2020/06/06 19:10:53;;;;;;;9.35;8.450002;;;;;;;15.31;83.32227;94258.76;;;;
2020/06/06 19:12:01;;;;;;;9.35;8.450002;;;;;;;15.31;83.32227;94258.76;;;;
2020/06/06 19:13:04;;;;;;;8.050001;7.299999;;;;;;;15.12;84.44043;94291.36;;;;
2020/06/06 19:14:07;;;;;;;8.050001;7.299999;;;;;;;15.12;84.44043;94291.36;;;;
2020/06/06 19:15:17;;;;;;;8.050001;7.299999;;;;;;;15.12;84.44043;94291.36;;;;
2020/06/06 19:16:23;;;;;;;8.050001;7.299999;;;;;;;15.12;84.44043;94291.36;;;;
2020/06/06 19:17:36;;;;;;;8.050001;7.299999;;;;;;;15.12;84.44043;94291.36;;;;
2020/06/06 19:18:37;;;;;;;8.050001;7.299999;;;;;;;15.12;84.44043;94291.36;;;;
2020/06/06 19:19:37;;;;;;;8.050001;7.299999;;;;;;;15.12;84.44043;94291.36;;;;
2020/06/06 19:20:59;;;;;;;8.050001;7.299999;;;;;;;15.12;84.44043;94291.36;;;;
2020/06/06 19:22:02;;;;;;;8.050001;7.299999;;;;;;;15.12;84.44043;94291.36;;;;
2020/06/06 19:23:08;;;;;;;6.899999;6.299999;;;;;;;15.01;85.17285;94304.38;;;;
2020/06/06 19:24:17;;;;;;;6.899999;6.299999;;;;;;;15.01;85.17285;94304.38;;;;
2020/06/06 19:51:33;;;;;;;4;3.65;;;;;;;14.94;86.7207;94329.32;;;;
2020/06/06 19:52:34;;;;;;;4;3.65;;;;;;;14.94;86.7207;94329.32;;;;
2020/06/06 19:53:39;;;;;;;4;3.65;;;;;;;14.94;86.7207;94329.32;;;;
2020/06/06 20:00:26;;;;;;;5.8;4.1;;;;;;;14.81;87.10352;94334.46;;;;
2020/06/06 20:01:37;;;;;;;5.8;4.1;;;;;;;14.81;87.10352;94334.46;;;;
2020/06/06 20:02:42;;;;;;;5.8;4.1;;;;;;;14.81;87.10352;94334.46;;;;
2020/06/06 20:03:47;;;;;;;5.8;4.1;;;;;;;14.81;87.10352;94334.46;;;;
2020/06/06 20:05:57;;;;;;;5.8;4.1;;;;;;;14.81;87.10352;94334.46;;;;
2020/06/06 20:06:58;;;;;;;3.1;2.8;;;;;;;14.74;87.61816;94333.98;;;;
2020/06/06 20:07:59;;;;;;;3.1;2.8;;;;;;;14.74;87.61816;94333.98;;;;
2020/06/06 20:09:04;;;;;;;3.1;2.8;;;;;;;14.74;87.61816;94333.98;;;;
2020/06/06 20:10:08;;;;;;;3.1;2.8;;;;;;;14.74;87.61816;94333.98;;;;
2020/06/06 20:11:17;;;;;;;3.1;2.8;;;;;;;14.74;87.61816;94333.98;;;;
2020/06/06 20:12:27;;;;;;;3.1;2.8;;;;;;;14.74;87.61816;94333.98;;;;
2020/06/06 20:13:34;;;;;;;3.1;2.8;;;;;;;14.74;87.61816;94333.98;;;;
2020/06/06 20:19:50;;;;;;;3.95;3.45;;;;;;;14.52;88.08008;94323.97;;;;
2020/06/06 20:20:56;;;;;;;3.95;3.45;;;;;;;14.52;88.08008;94323.97;;;;
2020/06/06 20:22:30;;;;;;;3.95;3.45;;;;;;;14.52;88.08008;94323.97;;;;
2020/06/06 20:23:46;;;;;;;3.95;3.45;;;;;;;14.52;88.08008;94323.97;;;;
2020/06/06 20:24:52;;;;;;;3.95;3.45;;;;;;;14.52;88.08008;94323.97;;;;
2020/06/06 20:25:59;;;;;;;3.95;3.45;;;;;;;14.52;88.08008;94323.97;;;;
2020/06/06 20:32:22;;;;;;;4.95;3.95;;;;;;;14.34;88.625;94333.73;;;;
2020/06/06 20:36:56;;;;;;;4.95;3.95;;;;;;;14.34;88.625;94333.73;;;;
2020/06/06 20:38:02;;;;;;;6.6;5.599999;;;;;;;14.17;89.23535;94344.15;;;;
2020/06/06 20:39:14;;;;;;;6.6;5.599999;;;;;;;14.17;89.23535;94344.15;;;;
2020/06/06 20:40:24;;;;;;;6.6;5.599999;;;;;;;14.17;89.23535;94344.15;;;;
2020/06/06 20:41:35;;;;;;;6.6;5.599999;;;;;;;14.17;89.23535;94344.15;;;;
2020/06/06 20:42:36;;;;;;;6.6;5.599999;;;;;;;14.17;89.23535;94344.15;;;;
2020/06/06 20:48:40;;;;;;;7.700001;6.65;;;;;;;14.01;89.89063;94323.61;;;;
2020/06/06 20:55:08;;;;;;;7.700001;6.65;;;;;;;14.01;89.89063;94323.61;;;;
2020/06/06 20:56:15;;;;;;;7.700001;6.65;;;;;;;14.01;89.89063;94323.61;;;;
2020/06/06 21:02:32;;;;;;;9.000001;8.1;;;;;;;13.83;90.66992;94329.69;;;;
2020/06/06 21:03:55;;;;;;;9.000001;8.1;;;;;;;13.83;90.66992;94329.69;;;;
2020/06/06 21:11:14;;;;;;;10.8;9.799998;;;;;;;13.9;91.38086;94347.29;;;;
2020/06/06 21:12:19;;;;;;;10.8;9.799998;;;;;;;13.9;91.38086;94347.29;;;;
2020/06/06 21:13:22;;;;;;;10.8;9.799998;;;;;;;13.9;91.38086;94347.29;;;;
2020/06/06 21:14:23;;;;;;;10.8;9.799998;;;;;;;13.9;91.38086;94347.29;;;;
2020/06/06 21:15:24;;;;;;;10.8;9.799998;;;;;;;13.9;91.38086;94347.29;;;;
2020/06/06 21:16:24;;;;;;;10.8;9.799998;;;;;;;13.9;91.38086;94347.29;;;;
2020/06/06 21:17:24;;;;;;;10.8;9.799998;;;;;;;13.9;91.38086;94347.29;;;;
2020/06/06 21:18:25;;;;;;;10.8;9.799998;;;;;;;13.9;91.38086;94347.29;;;;
2020/06/06 21:19:25;;;;;;;10.8;9.799998;;;;;;;13.9;91.38086;94347.29;;;;
2020/06/06 21:20:26;;;;;;;7.400001;6.7;;;;;;;13.99;92.01172;94347.92;;;;
2020/06/06 21:21:26;;;;;;;7.400001;6.7;;;;;;;13.99;92.01172;94347.92;;;;
2020/06/06 21:22:26;;;;;;;7.400001;6.7;;;;;;;13.99;92.01172;94347.92;;;;
2020/06/06 21:23:27;;;;;;;7.400001;6.7;;;;;;;13.99;92.01172;94347.92;;;;
2020/06/06 21:24:27;;;;;;;7.400001;6.7;;;;;;;13.99;92.01172;94347.92;;;;
2020/06/06 21:25:28;;;;;;;7.400001;6.7;;;;;;;13.99;92.01172;94347.92;;;;
2020/06/06 21:26:28;;;;;;;7.400001;6.7;;;;;;;13.99;92.01172;94347.92;;;;
2020/06/06 21:27:29;;;;;;;7.400001;6.7;;;;;;;13.99;92.01172;94347.92;;;;
2020/06/06 21:28:29;;;;;;;7.400001;6.7;;;;;;;13.99;92.01172;94347.92;;;;
2020/06/06 21:29:29;;;;;;;7.400001;6.7;;;;;;;13.99;92.01172;94347.92;;;;
2020/06/06 21:30:30;;;;;;;6.400001;5.5;;;;;;;14.09;92.16016;94349.74;;;;
2020/06/06 21:31:30;;;;;;;6.400001;5.5;;;;;;;14.09;92.16016;94349.74;;;;
2020/06/06 21:32:31;;;;;;;6.400001;5.5;;;;;;;14.09;92.16016;94349.74;;;;
2020/06/06 21:33:32;;;;;;;6.400001;5.5;;;;;;;14.09;92.16016;94349.74;;;;
2020/06/06 21:34:32;;;;;;;6.400001;5.5;;;;;;;14.09;92.16016;94349.74;;;;
2020/06/06 21:35:33;;;;;;;6.400001;5.5;;;;;;;14.09;92.16016;94349.74;;;;
2020/06/06 21:36:33;;;;;;;6.400001;5.5;;;;;;;14.09;92.16016;94349.74;;;;
2020/06/06 21:37:33;;;;;;;6.400001;5.5;;;;;;;14.09;92.16016;94349.74;;;;
2020/06/06 21:38:34;;;;;;;6.400001;5.5;;;;;;;14.09;92.16016;94349.74;;;;
2020/06/06 21:39:34;;;;;;;6.400001;5.5;;;;;;;14.09;92.16016;94349.74;;;;
2020/06/06 21:41:44;;;;;;;6.400001;5.5;;;;;;;14.09;92.16016;94349.74;;;;
2020/06/06 21:42:53;;;;;;;7.450001;6.749999;;;;;;;14.07;92.41504;94335.51;;;;
2020/06/06 21:43:59;;;;;;;7.450001;6.749999;;;;;;;14.07;92.41504;94335.51;;;;
2020/06/06 21:45:23;;;;;;;7.450001;6.749999;;;;;;;14.07;92.41504;94335.51;;;;
2020/06/06 21:46:31;;;;;;;7.450001;6.749999;;;;;;;14.07;92.41504;94335.51;;;;
2020/06/06 21:47:41;;;;;;;7.450001;6.749999;;;;;;;14.07;92.41504;94335.51;;;;
2020/06/06 21:53:59;;;;;;;10.3;8.200002;;;;;;;14.08;92.85547;94333.2;;;;
2020/06/06 22:00:12;;;;;;;10.3;8.200002;;;;;;;14.08;92.85547;94333.2;;;;
2020/06/06 22:01:26;;;;;;;10.3;8.200002;;;;;;;14.08;92.85547;94333.2;;;;
2020/06/06 22:02:27;;;;;;;9.049999;8.149999;;;;;;;14.01;93.37598;94331.34;;;;
2020/06/06 22:03:29;;;;;;;9.049999;8.149999;;;;;;;14.01;93.37598;94331.34;;;;
2020/06/06 22:04:30;;;;;;;9.049999;8.149999;;;;;;;14.01;93.37598;94331.34;;;;
2020/06/06 22:05:31;;;;;;;9.049999;8.149999;;;;;;;14.01;93.37598;94331.34;;;;
2020/06/06 22:06:31;;;;;;;9.049999;8.149999;;;;;;;14.01;93.37598;94331.34;;;;
2020/06/06 22:07:32;;;;;;;9.049999;8.149999;;;;;;;14.01;93.37598;94331.34;;;;
2020/06/06 22:08:32;;;;;;;9.049999;8.149999;;;;;;;14.01;93.37598;94331.34;;;;
2020/06/06 22:09:34;;;;;;;9.049999;8.149999;;;;;;;14.01;93.37598;94331.34;;;;
2020/06/06 22:10:34;;;;;;;9.049999;8.149999;;;;;;;14.01;93.37598;94331.34;;;;
2020/06/06 22:11:35;;;;;;;9.049999;8.149999;;;;;;;14.01;93.37598;94331.34;;;;
2020/06/06 22:12:35;;;;;;;9.049999;8.149999;;;;;;;14.01;93.37598;94331.34;;;;
2020/06/06 22:13:36;;;;;;;10.25;9.200001;;;;;;;14.01;93.84961;94333.52;;;;
2020/06/06 22:14:36;;;;;;;10.25;9.200001;;;;;;;14.01;93.84961;94333.52;;;;
2020/06/06 22:15:36;;;;;;;10.25;9.200001;;;;;;;14.01;93.84961;94333.52;;;;
2020/06/06 22:16:37;;;;;;;10.25;9.200001;;;;;;;14.01;93.84961;94333.52;;;;
2020/06/06 22:17:38;;;;;;;10.25;9.200001;;;;;;;14.01;93.84961;94333.52;;;;
2020/06/06 22:18:38;;;;;;;10.25;9.200001;;;;;;;14.01;93.84961;94333.52;;;;
2020/06/06 22:19:39;;;;;;;10.25;9.200001;;;;;;;14.01;93.84961;94333.52;;;;
2020/06/06 22:20:40;;;;;;;10.25;9.200001;;;;;;;14.01;93.84961;94333.52;;;;
2020/06/06 22:21:41;;;;;;;10.25;9.200001;;;;;;;14.01;93.84961;94333.52;;;;
2020/06/06 22:22:41;;;;;;;10.25;9.200001;;;;;;;14.01;93.84961;94333.52;;;;
2020/06/06 22:23:46;;;;;;;10.1;9.099999;;;;;;;13.95;94.27539;94341.01;;;;
2020/06/06 22:24:48;;;;;;;10.1;9.099999;;;;;;;13.95;94.27539;94341.01;;;;
2020/06/06 22:25:49;;;;;;;10.1;9.099999;;;;;;;13.95;94.27539;94341.01;;;;
2020/06/06 22:27:01;;;;;;;10.1;9.099999;;;;;;;13.95;94.27539;94341.01;;;;
2020/06/06 22:28:09;;;;;;;10.1;9.099999;;;;;;;13.95;94.27539;94341.01;;;;
2020/06/06 22:29:48;;;;;;;10.1;9.099999;;;;;;;13.95;94.27539;94341.01;;;;
2020/06/06 22:30:55;;;;;;;10.1;9.099999;;;;;;;13.95;94.27539;94341.01;;;;
2020/06/06 22:37:09;;;;;;;10.45;9.450002;;;;;;;13.97;94.67578;94308.98;;;;
2020/06/06 22:38:26;;;;;;;10.45;9.450002;;;;;;;13.97;94.67578;94308.98;;;;
2020/06/06 22:39:26;;;;;;;10.45;9.450002;;;;;;;13.97;94.67578;94308.98;;;;
2020/06/06 22:40:46;;;;;;;10.45;9.450002;;;;;;;13.97;94.67578;94308.98;;;;
2020/06/06 22:41:52;;;;;;;10.45;9.450002;;;;;;;13.97;94.67578;94308.98;;;;
2020/06/06 22:42:53;;;;;;;10.45;9.450002;;;;;;;13.97;94.67578;94308.98;;;;
2020/06/06 22:43:57;;;;;;;10.45;9.450002;;;;;;;13.97;94.67578;94308.98;;;;
2020/06/06 22:44:58;;;;;;;11.7;10.6;;;;;;;13.91;95.02734;94320;;;;
2020/06/06 22:45:59;;;;;;;11.7;10.6;;;;;;;13.91;95.02734;94320;;;;
2020/06/06 22:47:02;;;;;;;11.7;10.6;;;;;;;13.91;95.02734;94320;;;;
2020/06/06 22:48:02;;;;;;;11.7;10.6;;;;;;;13.91;95.02734;94320;;;;
2020/06/06 22:49:04;;;;;;;11.7;10.6;;;;;;;13.91;95.02734;94320;;;;
2020/06/06 22:50:05;;;;;;;11.7;10.6;;;;;;;13.91;95.02734;94320;;;;
2020/06/06 22:51:06;;;;;;;11.7;10.6;;;;;;;13.91;95.02734;94320;;;;
2020/06/06 22:52:15;;;;;;;11.7;10.6;;;;;;;13.91;95.02734;94320;;;;
2020/06/06 22:53:19;;;;;;;11.7;10.6;;;;;;;13.91;95.02734;94320;;;;
2020/06/06 22:54:20;;;;;;;11.7;10.6;;;;;;;13.91;95.02734;94320;;;;
2020/06/06 22:55:25;;;;;;;11.7;10.6;;;;;;;13.91;95.02734;94320;;;;
2020/06/06 22:56:25;;;;;;;11.7;10.6;;;;;;;13.91;95.02734;94320;;;;
2020/06/06 22:57:26;;;;;;;11.7;10.6;;;;;;;13.91;95.02734;94320;;;;
2020/06/06 22:58:27;;;;;;;11.7;10.6;;;;;;;13.91;95.02734;94320;;;;
2020/06/06 22:59:35;;;;;;;11.7;10.6;;;;;;;13.91;95.02734;94320;;;;
2020/06/06 23:00:35;;;;;;;11.7;10.6;;;;;;;13.91;95.02734;94320;;;;
2020/06/06 23:01:37;;;;;;;11.7;10.6;;;;;;;13.91;95.02734;94320;;;;
2020/06/06 23:02:37;;;;;;;11.7;10.6;;;;;;;13.91;95.02734;94320;;;;
2020/06/06 23:03:38;;;;;;;11.7;10.6;;;;;;;13.91;95.02734;94320;;;;
2020/06/06 23:04:39;;;;;;;11.7;10.6;;;;;;;13.91;95.02734;94320;;;;
2020/06/06 23:05:42;;;;;;;11.7;10.6;;;;;;;13.91;95.02734;94320;;;;
2020/06/06 23:06:44;;;;;;;10.05;9.15;;;;;;;13.84;95.87109;94305.92;;;;
2020/06/06 23:07:49;;;;;;;10.05;9.15;;;;;;;13.84;95.87109;94305.92;;;;
2020/06/06 23:08:51;;;;;;;10.05;9.15;;;;;;;13.84;95.87109;94305.92;;;;
2020/06/06 23:15:02;;;;;;;10.05;9.15;;;;;;;13.84;95.87109;94305.92;;;;
2020/06/06 23:16:06;;;;;;;10.05;9.15;;;;;;;13.84;95.87109;94305.92;;;;
2020/06/06 23:17:09;;;;;;;8.9;8.200002;;;;;;;13.84;96.35254;94315.42;;;;
2020/06/06 23:18:10;;;;;;;8.9;8.200002;;;;;;;13.84;96.35254;94315.42;;;;
2020/06/06 23:19:11;;;;;;;8.9;8.200002;;;;;;;13.84;96.35254;94315.42;;;;
2020/06/06 23:20:14;;;;;;;8.9;8.200002;;;;;;;13.84;96.35254;94315.42;;;;
2020/06/06 23:22:22;;;;;;;8.9;8.200002;;;;;;;13.84;96.35254;94315.42;;;;
2020/06/06 23:23:24;;;;;;;8.9;8.200002;;;;;;;13.84;96.35254;94315.42;;;;
2020/06/06 23:24:25;;;;;;;8.9;8.200002;;;;;;;13.84;96.35254;94315.42;;;;
2020/06/06 23:25:25;;;;;;;8.9;8.200002;;;;;;;13.84;96.35254;94315.42;;;;
2020/06/06 23:26:42;;;;;;;8.9;8.200002;;;;;;;13.84;96.35254;94315.42;;;;
2020/06/06 23:27:50;;;;;;;10.2;8.950001;;;;;;;13.77;96.7002;94309.91;;;;
2020/06/06 23:28:51;;;;;;;10.2;8.950001;;;;;;;13.77;96.7002;94309.91;;;;
2020/06/06 23:30:00;;;;;;;10.2;8.950001;;;;;;;13.77;96.7002;94309.91;;;;
2020/06/06 23:31:05;;;;;;;10.2;8.950001;;;;;;;13.77;96.7002;94309.91;;;;
2020/06/06 23:32:14;;;;;;;10.2;8.950001;;;;;;;13.77;96.7002;94309.91;;;;
2020/06/06 23:34:24;;;;;;;10.2;8.950001;;;;;;;13.77;96.7002;94309.91;;;;
2020/06/06 23:35:25;;;;;;;10.2;8.950001;;;;;;;13.77;96.7002;94309.91;;;;
2020/06/06 23:36:27;;;;;;;10.2;8.950001;;;;;;;13.77;96.7002;94309.91;;;;
2020/06/06 23:37:27;;;;;;;10.2;8.950001;;;;;;;13.77;96.7002;94309.91;;;;
2020/06/06 23:38:30;;;;;;;8.700001;7.9;;;;;;;13.81;97.20117;94315.99;;;;
2020/06/06 23:39:32;;;;;;;8.700001;7.9;;;;;;;13.81;97.20117;94315.99;;;;
2020/06/06 23:40:33;;;;;;;8.700001;7.9;;;;;;;13.81;97.20117;94315.99;;;;
2020/06/06 23:41:33;;;;;;;8.700001;7.9;;;;;;;13.81;97.20117;94315.99;;;;
2020/06/06 23:42:33;;;;;;;8.700001;7.9;;;;;;;13.81;97.20117;94315.99;;;;
2020/06/06 23:43:34;;;;;;;8.700001;7.9;;;;;;;13.81;97.20117;94315.99;;;;
2020/06/06 23:44:34;;;;;;;8.700001;7.9;;;;;;;13.81;97.20117;94315.99;;;;
2020/06/06 23:45:35;;;;;;;8.700001;7.9;;;;;;;13.81;97.20117;94315.99;;;;
2020/06/06 23:46:35;;;;;;;8.700001;7.9;;;;;;;13.81;97.20117;94315.99;;;;
2020/06/06 23:47:35;;;;;;;8.700001;7.9;;;;;;;13.81;97.20117;94315.99;;;;
2020/06/06 23:48:36;;;;;;;8.35;7.649999;;;;;;;13.75;97.37012;94301.23;;;;
2020/06/06 23:49:36;;;;;;;8.35;7.649999;;;;;;;13.75;97.37012;94301.23;;;;
2020/06/06 23:50:37;;;;;;;8.35;7.649999;;;;;;;13.75;97.37012;94301.23;;;;
2020/06/06 23:51:38;;;;;;;8.35;7.649999;;;;;;;13.75;97.37012;94301.23;;;;
2020/06/06 23:52:38;;;;;;;8.35;7.649999;;;;;;;13.75;97.37012;94301.23;;;;
2020/06/06 23:53:39;;;;;;;8.35;7.649999;;;;;;;13.75;97.37012;94301.23;;;;
2020/06/06 23:54:52;;;;;;;8.35;7.649999;;;;;;;13.75;97.37012;94301.23;;;;
2020/06/06 23:55:58;;;;;;;8.35;7.649999;;;;;;;13.75;97.37012;94301.23;;;;
2020/06/06 23:57:01;;;;;;;8.35;7.649999;;;;;;;13.75;97.37012;94301.23;;;;
